Time;durP1;ratioP1;P1;durP2;ratioP2;P2;SDS_P1;SDS_P2;PMS_P1;PMS_P2;Temp;Humidity;BMP_temperature;BMP_pressure;BME280_temperature;BME280_humidity;BME280_pressure;Samples;Min_cycle;Max_cycle;Signal;HPM_P1;HPM_P2
2023/08/31 00:02:16;;;;;;;5.78;5.28;;;;;;;11.31;100.00;100411.09;6112165;23;20621;-72
2023/08/31 00:04:43;;;;;;;5.47;5.07;;;;;;;11.27;100.00;100420.09;6114092;23;20013;-71
2023/08/31 00:07:09;;;;;;;5.63;5.13;;;;;;;10.23;100.00;100248.53;6084819;23;20100;-70
2023/08/31 00:09:36;;;;;;;5.72;5.32;;;;;;;11.43;100.00;100441.03;6114201;23;20044;-71
2023/08/31 00:12:03;;;;;;;6.05;5.55;;;;;;;10.47;100.00;100287.44;6112355;23;20034;-70
2023/08/31 00:14:29;;;;;;;5.63;5.22;;;;;;;11.21;100.00;100422.25;6110730;23;20044;-71
2023/08/31 00:16:57;;;;;;;5.57;5.07;;;;;;;10.82;100.00;100366.69;6116407;23;20081;-71
2023/08/31 00:19:24;;;;;;;6.13;5.65;;;;;;;11.16;100.00;100441.75;6113203;23;20337;-71
2023/08/31 00:21:51;;;;;;;5.95;5.30;;;;;;;10.69;100.00;100377.09;6089305;23;21097;-71
2023/08/31 00:24:17;;;;;;;5.45;5.05;;;;;;;10.73;100.00;100394.34;6116368;23;20036;-71
2023/08/31 00:26:43;;;;;;;5.80;5.43;;;;;;;10.33;100.00;100324.94;6074141;23;20487;-70
2023/08/31 00:29:16;;;;;;;5.60;5.20;;;;;;;10.93;100.00;100432.56;6118564;23;20400;-70
2023/08/31 00:31:44;;;;;;;7.78;5.47;;;;;;;10.94;100.00;100436.03;6099724;23;20041;-71
2023/08/31 00:34:14;;;;;;;5.35;5.00;;;;;;;10.33;100.00;100338.91;6112204;23;20029;-71
2023/08/31 00:36:40;;;;;;;6.32;5.93;;;;;;;10.57;100.00;100385.66;6113226;23;20028;-71
2023/08/31 00:39:10;;;;;;;5.65;5.30;;;;;;;10.56;100.00;100390.06;6113637;23;20093;-71
2023/08/31 00:41:37;;;;;;;5.10;4.80;;;;;;;10.88;100.00;100455.59;6112666;23;20027;-71
2023/08/31 00:44:04;;;;;;;5.93;5.53;;;;;;;9.86;100.00;100302.19;6096652;23;20033;-71
2023/08/31 00:46:31;;;;;;;5.65;5.25;;;;;;;10.36;100.00;100391.19;6092030;23;20514;-71
2023/08/31 00:48:58;;;;;;;5.60;5.20;;;;;;;10.11;100.00;100370.69;6084912;23;20136;-71
2023/08/31 00:51:25;;;;;;;5.15;4.82;;;;;;;9.99;100.00;100356.50;6055782;23;20014;-71
2023/08/31 00:53:55;;;;;;;5.20;4.90;;;;;;;10.13;100.00;100383.72;6083539;23;20085;-71
2023/08/31 00:56:22;;;;;;;5.60;5.20;;;;;;;10.23;100.00;100418.16;6058479;23;20081;-71
2023/08/31 00:58:48;;;;;;;7.57;5.22;;;;;;;10.45;100.00;100452.78;6088038;23;20049;-71
2023/08/31 01:01:39;;;;;;;6.22;5.72;;;;;;;10.40;100.00;100456.59;6085253;23;20028;-71
2023/08/31 01:04:31;;;;;;;5.60;5.30;;;;;;;10.42;100.00;100458.19;6058087;23;20587;-71
2023/08/31 01:07:08;;;;;;;5.55;5.15;;;;;;;10.38;100.00;100454.91;6036381;23;20081;-71
2023/08/31 01:09:51;;;;;;;10.07;5.57;;;;;;;10.36;100.00;100456.78;6086175;23;20162;-71
2023/08/31 01:12:41;;;;;;;6.00;5.50;;;;;;;10.09;100.00;100396.16;6059564;23;20041;-71
2023/08/31 01:15:11;;;;;;;5.32;5.03;;;;;;;10.12;100.00;100440.59;6059779;23;20029;-71
2023/08/31 01:17:47;;;;;;;5.47;4.97;;;;;;;10.28;100.00;100445.81;6062119;23;20021;-72
2023/08/31 01:20:28;;;;;;;5.55;5.10;;;;;;;9.77;100.00;100388.25;6066045;23;20018;-71
2023/08/31 01:23:05;;;;;;;5.45;5.15;;;;;;;10.21;100.00;100459.38;6089790;23;20047;-71
2023/08/31 01:25:32;;;;;;;5.75;5.25;;;;;;;10.15;100.00;100460.53;6084609;23;20120;-71
2023/08/31 01:27:59;;;;;;;5.85;5.45;;;;;;;9.56;100.00;100371.94;6060982;23;20036;-70
2023/08/31 01:30:29;;;;;;;5.45;5.05;;;;;;;9.66;100.00;100402.88;6083884;23;20025;-71
2023/08/31 01:32:56;;;;;;;5.85;5.35;;;;;;;9.76;100.00;100417.16;6084755;23;20589;-71
2023/08/31 01:35:23;;;;;;;5.78;5.28;;;;;;;9.74;100.00;100435.63;6061490;23;20015;-69
2023/08/31 01:37:57;;;;;;;5.25;4.85;;;;;;;9.21;100.00;100334.50;6046562;23;20326;-71
2023/08/31 01:40:32;;;;;;;5.55;5.13;;;;;;;10.01;100.00;100478.78;6058466;23;20023;-72
2023/08/31 01:43:01;;;;;;;5.93;5.50;;;;;;;9.67;100.00;100423.75;6058184;23;20045;-71
2023/08/31 01:45:28;;;;;;;5.47;5.07;;;;;;;9.66;100.00;100432.56;6084136;23;20010;-71
2023/08/31 01:47:55;;;;;;;5.60;5.30;;;;;;;9.78;100.00;100473.84;6055921;23;20101;-71
2023/08/31 01:50:22;;;;;;;4.85;4.55;;;;;;;9.42;100.00;100403.25;6087542;23;20035;-71
2023/08/31 01:52:49;;;;;;;5.25;4.95;;;;;;;9.19;100.00;100394.78;6083108;23;20058;-71
2023/08/31 01:55:15;;;;;;;5.43;5.03;;;;;;;9.60;100.00;100443.34;6087050;23;20018;-72
2023/08/31 01:57:42;;;;;;;5.78;5.28;;;;;;;8.94;100.00;100335.00;6116332;23;20646;-70
2023/08/31 02:00:10;;;;;;;6.00;5.60;;;;;;;9.95;100.00;100501.78;6089518;23;20045;-71
2023/08/31 02:02:36;;;;;;;5.22;4.93;;;;;;;9.65;100.00;100457.06;6115896;23;20025;-71
2023/08/31 02:05:04;;;;;;;5.50;5.10;;;;;;;9.68;100.00;100469.13;6085978;23;20029;-71
2023/08/31 02:07:30;;;;;;;6.03;5.55;;;;;;;9.90;100.00;100502.94;6066043;23;20026;-71
2023/08/31 02:09:57;;;;;;;5.38;4.90;;;;;;;9.39;100.00;100435.66;6116468;23;20048;-72
2023/08/31 02:12:23;;;;;;;5.82;5.43;;;;;;;9.42;100.00;100441.66;6114811;23;20092;-72
2023/08/31 02:14:50;;;;;;;5.30;4.90;;;;;;;9.68;100.00;100483.13;6111103;23;20052;-71
2023/08/31 02:17:17;;;;;;;5.35;4.95;;;;;;;9.79;100.00;100508.75;6114942;23;20024;-71
2023/08/31 02:19:43;;;;;;;4.93;4.65;;;;;;;9.23;100.00;100426.06;6114211;23;20013;-71
2023/08/31 02:22:10;;;;;;;5.18;4.88;;;;;;;9.16;100.00;100420.28;6088744;23;20468;-71
2023/08/31 02:24:36;;;;;;;5.15;4.85;;;;;;;9.59;100.00;100494.06;6111150;23;20033;-71
2023/08/31 02:27:03;;;;;;;5.53;5.13;;;;;;;9.74;100.00;100519.47;6085954;23;20018;-71
2023/08/31 02:29:29;;;;;;;5.65;5.15;;;;;;;9.50;100.00;100491.88;6115011;23;20042;-71
2023/08/31 02:31:56;;;;;;;7.32;4.90;;;;;;;9.16;100.00;100425.50;6065811;23;20026;-71
2023/08/31 02:34:22;;;;;;;5.53;5.00;;;;;;;9.72;100.00;100521.34;6081142;23;20034;-71
2023/08/31 02:36:49;;;;;;;5.28;4.88;;;;;;;9.49;100.00;100490.22;6086588;23;20046;-72
2023/08/31 02:39:16;;;;;;;4.97;4.68;;;;;;;9.68;100.00;100519.78;6115424;23;20021;-71
2023/08/31 02:41:42;;;;;;;5.22;4.88;;;;;;;9.52;100.00;100497.91;6093028;23;20096;-71
2023/08/31 02:44:09;;;;;;;5.03;4.72;;;;;;;9.51;100.00;100504.06;6114971;23;20088;-71
2023/08/31 02:46:35;;;;;;;4.72;4.43;;;;;;;9.09;100.00;100452.94;6110957;23;20142;-72
2023/08/31 02:49:02;;;;;;;5.40;5.05;;;;;;;9.27;100.00;100477.34;6105052;23;20040;-71
2023/08/31 02:51:28;;;;;;;5.00;4.60;;;;;;;9.14;100.00;100451.78;6058721;23;20209;-71
2023/08/31 02:53:55;;;;;;;4.82;4.57;;;;;;;9.55;100.00;100526.56;6088789;23;20014;-71
2023/08/31 02:56:21;;;;;;;7.78;4.88;;;;;;;9.51;100.00;100525.88;6084139;23;20033;-70
2023/08/31 02:58:48;;;;;;;5.15;4.85;;;;;;;8.88;100.00;100426.91;6080460;23;20057;-71
2023/08/31 03:01:14;;;;;;;5.70;5.30;;;;;;;9.13;100.00;100478.88;6066111;23;20429;-71
2023/08/31 03:03:42;;;;;;;4.88;4.57;;;;;;;8.85;100.00;100427.06;6095704;23;20274;-72
2023/08/31 03:06:09;;;;;;;5.60;5.20;;;;;;;9.43;100.00;100521.97;6092533;23;20030;-71
2023/08/31 03:08:37;;;;;;;5.72;5.32;;;;;;;9.01;100.00;100469.03;6085790;23;20416;-71
2023/08/31 03:11:05;;;;;;;5.18;4.88;;;;;;;9.45;100.00;100526.19;6064032;23;20078;-72
2023/08/31 03:13:32;;;;;;;5.07;4.68;;;;;;;9.16;100.00;100470.03;6064246;23;20663;-70
2023/08/31 03:16:00;;;;;;;8.75;5.25;;;;;;;9.58;100.00;100540.38;6093353;23;20434;-70
2023/08/31 03:18:27;;;;;;;8.07;5.00;;;;;;;9.52;100.00;100516.22;6090374;23;20089;-71
2023/08/31 03:20:54;;;;;;;5.78;5.20;;;;;;;9.58;100.00;100500.19;6097197;23;20009;-71
2023/08/31 03:23:21;;;;;;;5.40;5.00;;;;;;;9.98;100.00;100550.56;6085423;23;20022;-71
2023/08/31 03:25:47;;;;;;;5.20;4.90;;;;;;;9.42;100.00;100454.78;6087048;23;20026;-71
2023/08/31 03:28:14;;;;;;;5.20;4.75;;;;;;;9.69;100.00;100482.16;6089262;23;20033;-71
2023/08/31 03:30:40;;;;;;;5.18;4.88;;;;;;;10.16;100.00;100556.63;6085323;23;20025;-72
2023/08/31 03:33:07;;;;;;;5.90;5.50;;;;;;;9.87;100.00;100497.88;6089633;23;20390;-70
2023/08/31 03:35:33;;;;;;;6.78;5.28;;;;;;;10.33;100.00;100553.16;6061820;23;20013;-71
2023/08/31 03:38:00;;;;;;;6.45;5.03;;;;;;;9.87;100.00;100471.66;6089897;23;20078;-70
2023/08/31 03:40:27;;;;;;;8.27;5.18;;;;;;;10.08;100.00;100496.75;6087019;23;21043;-70
2023/08/31 03:42:54;;;;;;;5.93;5.32;;;;;;;10.28;100.00;100503.50;6092330;23;20024;-72
2023/08/31 03:45:21;;;;;;;5.57;5.10;;;;;;;10.71;100.00;100542.34;6058365;23;20457;-71
2023/08/31 03:47:47;;;;;;;5.72;5.32;;;;;;;10.02;100.00;100433.28;6072269;23;20071;-71
2023/08/31 03:50:14;;;;;;;5.88;5.47;;;;;;;10.48;100.00;100507.69;6083553;23;20059;-71
2023/08/31 03:52:40;;;;;;;9.00;5.30;;;;;;;10.40;100.00;100512.53;6087930;23;20050;-71
2023/08/31 03:55:07;;;;;;;5.60;5.20;;;;;;;10.43;100.00;100516.78;6064777;23;20028;-72
2023/08/31 03:57:33;;;;;;;5.50;5.10;;;;;;;10.37;100.00;100526.66;6086083;23;20056;-72
2023/08/31 04:00:00;;;;;;;6.57;5.95;;;;;;;10.02;100.00;100469.97;6056199;23;20094;-71
2023/08/31 04:02:27;;;;;;;5.68;5.28;;;;;;;10.15;100.00;100511.19;6068056;23;20027;-71
2023/08/31 04:04:53;;;;;;;5.35;5.05;;;;;;;9.91;100.00;100468.78;6057958;23;20049;-75
2023/08/31 04:07:20;;;;;;;5.78;5.32;;;;;;;9.43;100.00;100397.06;6057409;23;20092;-71
2023/08/31 04:09:46;;;;;;;5.15;4.82;;;;;;;9.99;100.00;100505.09;6079077;23;20456;-71
2023/08/31 04:12:12;;;;;;;5.78;5.38;;;;;;;8.94;100.00;100355.94;6083216;23;20042;-71
2023/08/31 04:14:39;;;;;;;5.18;4.72;;;;;;;9.83;100.00;100502.41;6092828;23;20037;-71
2023/08/31 04:17:05;;;;;;;6.03;5.53;;;;;;;9.98;100.00;100535.69;6057753;23;20598;-71
2023/08/31 04:19:32;;;;;;;5.38;4.97;;;;;;;9.35;100.00;100438.53;6090981;23;20026;-70
2023/08/31 04:21:58;;;;;;;5.10;4.80;;;;;;;9.64;100.00;100496.44;6084924;23;20086;-72
2023/08/31 04:24:24;;;;;;;5.03;4.68;;;;;;;9.49;100.00;100480.56;6086684;23;20589;-71
2023/08/31 04:26:51;;;;;;;4.90;4.60;;;;;;;9.69;100.00;100520.63;6090944;23;20089;-70
2023/08/31 04:29:17;;;;;;;5.65;5.00;;;;;;;9.65;100.00;100524.34;6088757;23;20046;-70
2023/08/31 04:31:44;;;;;;;5.03;4.72;;;;;;;9.27;100.00;100479.97;6065748;23;20014;-73
2023/08/31 04:34:10;;;;;;;6.55;4.97;;;;;;;8.84;100.00;100411.44;6091201;23;20034;-71
2023/08/31 04:36:37;;;;;;;5.68;5.38;;;;;;;9.31;100.00;100505.09;6084931;23;20032;-72
2023/08/31 04:39:04;;;;;;;5.50;5.20;;;;;;;9.66;100.00;100562.69;6044112;23;20648;-71
2023/08/31 04:41:31;;;;;;;6.07;4.82;;;;;;;9.64;100.00;100570.66;6082380;23;20085;-72
2023/08/31 04:43:57;;;;;;;5.88;5.45;;;;;;;9.15;100.00;100497.97;6063018;23;20049;-71
2023/08/31 04:46:24;;;;;;;6.78;4.78;;;;;;;9.02;100.00;100482.94;6062775;23;20468;-72
2023/08/31 04:48:50;;;;;;;5.50;5.10;;;;;;;9.18;100.00;100518.78;6057061;23;20042;-70
2023/08/31 04:51:34;;;;;;;8.40;5.28;;;;;;;9.41;100.00;100550.00;6060530;23;20030;-71
2023/08/31 04:54:02;;;;;;;5.95;5.55;;;;;;;8.98;100.00;100477.88;6085575;23;20673;-70
2023/08/31 04:56:32;;;;;;;6.32;5.50;;;;;;;9.53;100.00;100568.56;6088637;23;20049;-72
2023/08/31 04:58:59;;;;;;;5.47;5.07;;;;;;;9.46;100.00;100553.22;6051308;23;20027;-72
2023/08/31 05:01:26;;;;;;;5.38;5.07;;;;;;;9.76;100.00;100605.84;6067651;23;20037;-71
2023/08/31 05:03:52;;;;;;;6.72;5.60;;;;;;;8.72;100.00;100434.66;6086369;23;21140;-70
2023/08/31 05:06:18;;;;;;;6.07;5.53;;;;;;;9.83;100.00;100607.25;6064116;23;20029;-70
2023/08/31 05:08:46;;;;;;;5.85;5.43;;;;;;;9.83;100.00;100604.63;6087590;23;20073;-70
2023/08/31 05:11:12;;;;;;;5.97;5.47;;;;;;;9.62;100.00;100572.47;6061707;23;20085;-71
2023/08/31 05:13:42;;;;;;;5.10;4.80;;;;;;;9.62;100.00;100572.47;6040479;23;20386;-71
2023/08/31 05:16:09;;;;;;;7.40;5.40;;;;;;;9.41;100.00;100527.25;6088718;23;20041;-70
2023/08/31 05:18:36;;;;;;;5.85;5.38;;;;;;;9.48;100.00;100533.91;6083796;23;20032;-70
2023/08/31 05:21:03;;;;;;;5.90;5.40;;;;;;;10.09;100.00;100628.69;6087991;23;21105;-70
2023/08/31 05:23:30;;;;;;;5.68;5.22;;;;;;;10.13;100.00;100638.09;6059038;23;20057;-70
2023/08/31 05:25:57;;;;;;;6.43;5.93;;;;;;;9.81;100.00;100577.66;6081496;23;20010;-70
2023/08/31 05:28:24;;;;;;;5.65;5.22;;;;;;;10.11;100.00;100622.44;6059599;23;20036;-70
2023/08/31 05:30:52;;;;;;;5.63;5.13;;;;;;;10.27;100.00;100642.63;6056582;23;20079;-70
2023/08/31 05:33:19;;;;;;;6.68;5.60;;;;;;;10.32;100.00;100651.13;6060583;23;20034;-70
2023/08/31 05:35:46;;;;;;;6.28;5.78;;;;;;;9.99;100.00;100591.59;6084470;23;20359;-71
2023/08/31 05:38:12;;;;;;;5.75;5.25;;;;;;;10.30;100.00;100630.25;6085856;23;20026;-70
2023/08/31 05:40:38;;;;;;;9.30;5.55;;;;;;;10.36;100.00;100601.06;6084547;23;20037;-70
2023/08/31 05:43:05;;;;;;;5.88;5.47;;;;;;;10.90;100.00;100650.63;6086927;23;20034;-70
2023/08/31 05:45:33;;;;;;;6.00;5.50;;;;;;;10.76;100.00;100601.53;6083551;23;20041;-71
2023/08/31 05:48:00;;;;;;;6.18;5.68;;;;;;;10.71;100.00;100569.44;6060766;23;20032;-70
2023/08/31 05:50:27;;;;;;;6.40;5.90;;;;;;;11.26;100.00;100635.56;6066845;23;20026;-71
2023/08/31 05:52:55;;;;;;;6.60;6.00;;;;;;;10.93;100.00;100565.63;6092477;23;20585;-71
2023/08/31 05:55:21;;;;;;;6.13;5.72;;;;;;;11.03;100.00;100552.84;6096167;23;20030;-70
2023/08/31 05:57:48;;;;;;;5.97;5.57;;;;;;;11.17;100.00;100560.78;6061832;23;20509;-70
2023/08/31 06:00:16;;;;;;;6.00;5.53;;;;;;;11.36;100.00;100576.31;6117669;23;20028;-70
2023/08/31 06:02:46;;;;;;;5.97;5.38;;;;;;;11.48;100.00;100575.59;6107073;23;20046;-73
2023/08/31 06:05:13;;;;;;;8.45;5.88;;;;;;;11.50;100.00;100571.09;6118527;23;20013;-70
2023/08/31 06:07:39;;;;;;;5.70;5.32;;;;;;;11.78;100.00;100603.69;6096847;23;20029;-69
2023/08/31 06:10:06;;;;;;;6.20;5.60;;;;;;;11.69;100.00;100584.03;6118913;23;20498;-69
2023/08/31 06:12:33;;;;;;;5.50;5.10;;;;;;;11.73;100.00;100575.03;6099068;23;20047;-69
2023/08/31 06:15:00;;;;;;;5.97;5.50;;;;;;;11.69;100.00;100551.66;6094862;23;20035;-70
2023/08/31 06:17:26;;;;;;;6.45;5.47;;;;;;;12.12;100.00;100622.75;6098705;23;20029;-70
2023/08/31 06:19:52;;;;;;;6.10;5.57;;;;;;;12.00;100.00;100571.72;6093275;23;20025;-70
2023/08/31 06:22:21;;;;;;;5.63;5.22;;;;;;;12.37;100.00;100601.06;6119828;23;20025;-70
2023/08/31 06:24:48;;;;;;;6.00;5.50;;;;;;;12.22;100.00;100549.38;6127893;23;20094;-70
2023/08/31 06:27:16;;;;;;;5.50;5.20;;;;;;;12.55;100.00;100581.50;6120019;23;20043;-70
2023/08/31 06:29:42;;;;;;;6.35;5.82;;;;;;;12.24;100.00;100495.72;6101818;23;20022;-70
2023/08/31 06:32:09;;;;;;;5.80;5.40;;;;;;;12.69;100.00;100535.88;6118526;23;20044;-71
2023/08/31 06:34:35;;;;;;;5.50;5.10;;;;;;;12.92;100.00;100549.38;6091564;23;20092;-72
2023/08/31 06:37:03;;;;;;;5.60;5.13;;;;;;;13.07;100.00;100540.47;6123944;23;20029;-70
2023/08/31 06:39:30;;;;;;;5.85;5.35;;;;;;;12.95;100.00;100496.50;6124865;23;20044;-70
2023/08/31 06:41:56;;;;;;;5.40;5.07;;;;;;;13.15;100.00;100522.38;6124512;23;20100;-69
2023/08/31 06:44:23;;;;;;;5.47;5.13;;;;;;;13.32;100.00;100508.09;6097130;23;20303;-70
2023/08/31 06:46:49;;;;;;;5.80;5.40;;;;;;;13.34;100.00;100485.13;6122661;23;20171;-70
2023/08/31 06:49:16;;;;;;;6.63;5.20;;;;;;;13.53;100.00;100494.41;6125746;23;20471;-69
2023/08/31 06:51:42;;;;;;;5.55;5.07;;;;;;;12.77;100.00;100357.19;6092784;23;20789;-70
2023/08/31 06:54:09;;;;;;;5.40;5.10;;;;;;;13.05;100.00;100383.44;6125541;23;20095;-69
2023/08/31 06:56:35;;;;;;;5.85;5.45;;;;;;;13.68;100.00;100458.25;6111724;23;20021;-70
2023/08/31 06:59:02;;;;;;;5.78;5.03;;;;;;;13.60;100.00;100423.66;6102693;23;20034;-70
2023/08/31 07:01:29;;;;;;;5.20;4.90;;;;;;;13.87;100.00;100436.72;6116571;23;20717;-70
2023/08/31 07:03:56;;;;;;;5.68;5.28;;;;;;;13.96;100.00;100436.91;6105979;23;20014;-69
2023/08/31 07:06:22;;;;;;;6.90;5.43;;;;;;;14.07;100.00;100453.78;6099428;23;20018;-71
2023/08/31 07:08:49;;;;;;;5.40;4.80;;;;;;;14.10;100.00;100421.91;6063972;23;20028;-70
2023/08/31 07:11:17;;;;;;;5.47;4.93;;;;;;;14.15;100.00;100412.72;6118603;23;20051;-69
2023/08/31 07:13:43;;;;;;;6.13;5.05;;;;;;;13.79;100.00;100341.44;6123463;23;20021;-70
2023/08/31 07:16:10;;;;;;;6.10;5.60;;;;;;;14.26;100.00;100401.38;6123236;23;20040;-69
2023/08/31 07:18:37;;;;;;;5.90;5.50;;;;;;;14.25;100.00;100383.88;6116194;23;20057;-72
2023/08/31 07:21:08;;;;;;;5.80;5.40;;;;;;;14.41;100.00;100386.19;6119716;23;20661;-69
2023/08/31 07:23:37;;;;;;;5.75;5.43;;;;;;;14.16;100.00;100329.94;6122653;23;20021;-70
2023/08/31 07:26:04;;;;;;;6.07;5.57;;;;;;;14.49;100.00;100365.38;6116486;23;20097;-69
2023/08/31 07:28:31;;;;;;;7.13;5.50;;;;;;;14.33;100.00;100323.44;6123871;23;20096;-70
2023/08/31 07:31:04;;;;;;;5.90;5.50;;;;;;;14.38;100.00;100325.72;6095037;23;20035;-69
2023/08/31 07:33:32;;;;;;;6.25;5.75;;;;;;;14.83;100.00;100370.78;6100370;23;20025;-69
2023/08/31 07:35:59;;;;;;;6.00;5.60;;;;;;;14.90;100.00;100361.47;6071275;23;20099;-70
2023/08/31 07:38:27;;;;;;;5.60;5.30;;;;;;;15.01;100.00;100360.63;6120706;23;20057;-72
2023/08/31 07:40:54;;;;;;;6.85;5.40;;;;;;;15.18;100.00;100377.84;6128140;23;20720;-70
2023/08/31 07:43:20;;;;;;;6.18;5.53;;;;;;;14.78;100.00;100300.78;6096534;23;20027;-70
2023/08/31 07:45:47;;;;;;;5.50;5.20;;;;;;;15.48;100.00;100372.00;6097897;23;20401;-69
2023/08/31 07:48:14;;;;;;;6.10;5.60;;;;;;;15.65;100.00;100362.72;6099287;23;20028;-70
2023/08/31 07:50:41;;;;;;;7.07;5.82;;;;;;;15.64;96.21;100304.69;6114361;23;20054;-69
2023/08/31 07:53:08;;;;;;;5.55;5.15;;;;;;;15.68;94.55;100282.31;6115139;23;20096;-69
2023/08/31 07:55:35;;;;;;;6.25;5.00;;;;;;;15.25;93.72;100214.31;6114712;23;20032;-71
2023/08/31 07:58:02;;;;;;;5.13;4.93;;;;;;;15.53;94.83;100265.84;6095041;23;20081;-70
2023/08/31 08:00:28;;;;;;;7.88;5.40;;;;;;;15.84;95.08;100295.16;6115823;23;20029;-70
2023/08/31 08:02:55;;;;;;;5.40;5.10;;;;;;;15.47;93.02;100198.41;6092608;23;20025;-70
2023/08/31 08:05:21;;;;;;;5.72;5.43;;;;;;;15.58;91.07;100188.78;6115230;23;20021;-70
2023/08/31 08:07:48;;;;;;;5.70;5.35;;;;;;;15.40;91.08;100141.72;6115329;23;20034;-70
2023/08/31 08:10:14;;;;;;;5.70;5.35;;;;;;;15.93;90.76;100222.94;6110933;23;20077;-70
2023/08/31 08:12:45;;;;;;;5.60;5.30;;;;;;;15.95;90.81;100242.19;6120155;23;20055;-69
2023/08/31 08:15:12;;;;;;;5.60;5.30;;;;;;;15.99;90.94;100243.63;6092197;23;20043;-69
2023/08/31 08:17:39;;;;;;;5.53;5.10;;;;;;;16.00;89.30;100181.78;6088654;23;20030;-70
2023/08/31 08:20:07;;;;;;;5.72;5.40;;;;;;;16.18;88.34;100190.00;6114580;23;20730;-70
2023/08/31 08:22:33;;;;;;;5.70;5.40;;;;;;;16.55;87.33;100216.84;6115858;23;20021;-71
2023/08/31 08:25:02;;;;;;;6.78;5.60;;;;;;;16.07;86.80;100129.16;6119448;23;20041;-70
2023/08/31 08:27:29;;;;;;;6.85;5.22;;;;;;;16.46;86.37;100185.03;6116468;23;20476;-70
2023/08/31 08:29:55;;;;;;;6.22;5.40;;;;;;;16.08;86.88;100138.81;6114998;23;20058;-69
2023/08/31 08:32:22;;;;;;;5.90;5.47;;;;;;;16.47;86.49;100197.28;6097892;23;20365;-70
2023/08/31 08:34:50;;;;;;;5.70;5.30;;;;;;;16.70;86.92;100227.13;6088329;23;20029;-70
2023/08/31 08:37:17;;;;;;;5.63;5.30;;;;;;;16.84;84.63;100179.13;6096472;23;20077;-70
2023/08/31 08:39:43;;;;;;;5.78;5.35;;;;;;;16.59;84.74;100137.97;6115721;23;20096;-69
2023/08/31 08:42:11;;;;;;;5.55;5.15;;;;;;;16.56;85.36;100148.84;6112122;23;20021;-73
2023/08/31 08:44:39;;;;;;;5.88;5.47;;;;;;;16.46;83.83;100108.22;6117955;23;20100;-70
2023/08/31 08:47:06;;;;;;;6.22;5.60;;;;;;;16.75;83.69;100156.84;6115398;23;20099;-70
2023/08/31 08:49:35;;;;;;;6.07;5.65;;;;;;;17.12;83.42;100168.75;6114386;23;20087;-69
2023/08/31 08:52:02;;;;;;;6.05;5.65;;;;;;;17.24;78.32;100043.03;6113871;23;20033;-69
2023/08/31 08:54:29;;;;;;;5.55;5.22;;;;;;;17.48;76.19;100015.22;6114021;23;20084;-69
2023/08/31 08:56:56;;;;;;;6.15;5.75;;;;;;;17.10;75.97;99956.78;6058774;23;20089;-69
2023/08/31 08:59:24;;;;;;;5.72;5.30;;;;;;;17.73;74.97;100037.66;6087844;23;20049;-71
2023/08/31 09:01:50;;;;;;;5.97;5.57;;;;;;;17.58;73.68;99972.75;6113702;23;20799;-70
2023/08/31 09:04:17;;;;;;;6.05;5.50;;;;;;;17.91;72.88;99995.34;6112033;23;20682;-70
2023/08/31 09:06:44;;;;;;;5.47;5.18;;;;;;;18.13;72.48;100000.28;6115955;23;20017;-69
2023/08/31 09:09:11;;;;;;;6.20;5.75;;;;;;;18.23;72.33;100013.50;6115734;23;20052;-70
2023/08/31 09:11:37;;;;;;;6.50;5.85;;;;;;;18.59;71.15;99995.00;6092752;23;20085;-70
2023/08/31 09:14:15;;;;;;;5.95;5.57;;;;;;;18.91;68.46;99953.84;6113577;23;20476;-70
2023/08/31 09:16:45;;;;;;;5.47;5.13;;;;;;;19.19;68.36;99998.97;6088366;23;20655;-69
2023/08/31 09:19:27;;;;;;;6.00;5.70;;;;;;;19.11;66.75;99942.03;6115407;23;20029;-69
2023/08/31 09:21:56;;;;;;;5.68;5.38;;;;;;;19.41;65.28;99892.03;6085033;23;20028;-69
2023/08/31 09:24:24;;;;;;;5.50;5.18;;;;;;;18.99;65.40;99857.34;6116117;23;20037;-69
2023/08/31 09:26:55;;;;;;;8.93;5.50;;;;;;;19.75;65.07;99979.13;6091386;23;20090;-69
2023/08/31 09:29:22;;;;;;;5.87;5.47;;;;;;;19.53;64.32;99897.94;6116947;23;20048;-69
2023/08/31 09:31:49;;;;;;;5.85;5.40;;;;;;;18.90;63.90;99792.63;6115462;23;20013;-69
2023/08/31 09:34:16;;;;;;;6.07;5.50;;;;;;;19.44;64.81;99954.75;6118693;23;20738;-69
2023/08/31 09:36:43;;;;;;;6.43;5.97;;;;;;;19.25;64.69;99924.69;6084544;23;20089;-70
2023/08/31 09:39:11;;;;;;;5.72;5.32;;;;;;;19.37;63.04;99869.41;6115342;23;20031;-69
2023/08/31 09:42:04;;;;;;;5.45;5.15;;;;;;;19.77;62.51;99896.44;6112014;23;20022;-72
2023/08/31 09:44:30;;;;;;;5.90;5.60;;;;;;;19.55;62.86;99919.91;6106355;23;21075;-69
2023/08/31 09:46:57;;;;;;;6.05;5.60;;;;;;;19.80;63.15;99965.31;6090293;23;20041;-69
2023/08/31 09:49:25;;;;;;;5.78;5.47;;;;;;;19.86;62.85;99951.38;6087936;23;20107;-69
2023/08/31 09:51:52;;;;;;;5.93;5.57;;;;;;;20.22;62.43;99969.84;6112746;23;20025;-69
2023/08/31 09:54:22;;;;;;;6.63;6.22;;;;;;;19.87;61.66;99902.47;6090985;23;20031;-69
2023/08/31 09:56:49;;;;;;;5.68;5.38;;;;;;;19.61;62.63;99923.78;6112624;23;20025;-69
2023/08/31 09:59:16;;;;;;;5.80;5.50;;;;;;;19.70;63.15;99942.28;6117091;23;20137;-69
2023/08/31 10:01:46;;;;;;;5.90;5.53;;;;;;;20.17;60.94;99933.03;6115759;23;20035;-69
2023/08/31 10:04:13;;;;;;;8.63;5.85;;;;;;;20.34;59.54;99899.28;6114992;23;20132;-69
2023/08/31 10:06:41;;;;;;;8.80;5.93;;;;;;;20.73;60.44;99962.72;6090445;23;20049;-69
2023/08/31 10:09:11;;;;;;;6.68;6.05;;;;;;;20.97;58.24;99894.38;6085634;23;20451;-69
2023/08/31 10:11:39;;;;;;;5.90;5.55;;;;;;;21.02;59.35;99935.56;6115930;23;20033;-69
2023/08/31 10:14:07;;;;;;;6.40;6.00;;;;;;;21.62;56.82;99885.47;6068093;23;20058;-70
2023/08/31 10:16:34;;;;;;;7.43;5.82;;;;;;;20.97;57.35;99825.88;6086123;23;20036;-69
2023/08/31 10:19:02;;;;;;;6.40;5.85;;;;;;;20.69;57.37;99836.88;6084950;23;20100;-69
2023/08/31 10:21:29;;;;;;;5.93;5.53;;;;;;;20.51;58.87;99929.47;6107778;23;20687;-70
2023/08/31 10:23:57;;;;;;;6.05;5.60;;;;;;;20.54;59.05;99955.78;6090535;23;20026;-69
2023/08/31 10:26:29;;;;;;;5.85;5.53;;;;;;;20.30;58.44;99936.06;6091074;23;20056;-70
2023/08/31 10:28:57;;;;;;;5.78;5.47;;;;;;;19.77;59.11;99977.13;6060996;23;20045;-69
2023/08/31 10:31:29;;;;;;;5.78;5.47;;;;;;;19.93;60.03;100054.44;6117290;23;20025;-71
2023/08/31 10:34:03;;;;;;;6.05;5.65;;;;;;;20.10;60.08;100044.72;6094151;23;20535;-69
2023/08/31 10:36:40;;;;;;;6.05;5.65;;;;;;;20.62;58.73;100096.31;6117375;23;20031;-69
2023/08/31 10:39:12;;;;;;;5.82;5.53;;;;;;;20.91;58.79;100090.59;6077373;23;20149;-70
2023/08/31 10:41:39;;;;;;;6.50;6.00;;;;;;;21.56;57.37;100121.94;6114885;23;20039;-69
2023/08/31 10:44:23;;;;;;;6.65;6.25;;;;;;;21.70;56.63;100104.44;6093609;23;20836;-70
2023/08/31 10:46:50;;;;;;;6.63;6.13;;;;;;;21.26;55.03;99981.94;6111649;23;20049;-70
2023/08/31 10:49:20;;;;;;;6.57;6.18;;;;;;;20.35;56.14;99964.06;6115779;23;20106;-70
2023/08/31 10:51:53;;;;;;;6.25;5.85;;;;;;;20.30;56.12;100076.47;6110151;23;20041;-70
2023/08/31 10:54:24;;;;;;;6.68;6.10;;;;;;;20.11;58.33;100146.81;6094635;23;20051;-70
2023/08/31 10:56:57;;;;;;;5.95;5.57;;;;;;;20.60;58.06;100203.13;6094499;23;20369;-69
2023/08/31 10:59:25;;;;;;;;;;;;;;;21.12;55.93;100148.84;6092608;23;20026;-70
2023/08/31 11:01:51;;;;;;;6.00;5.60;;;;;;;21.59;55.58;100166.16;6113680;23;19973;-70
2023/08/31 11:04:18;;;;;;;6.47;6.07;;;;;;;21.62;54.76;100150.66;6094873;23;20041;-70
2023/08/31 11:06:44;;;;;;;6.50;6.00;;;;;;;22.29;53.85;100160.34;6109101;23;20033;-70
2023/08/31 11:09:21;;;;;;;6.50;6.00;;;;;;;22.59;52.74;100112.47;6120276;23;20032;-70
2023/08/31 11:11:48;;;;;;;6.50;6.10;;;;;;;22.50;51.92;100088.44;6096267;23;20088;-70
2023/08/31 11:14:15;;;;;;;6.53;6.18;;;;;;;22.82;51.48;100107.22;6116003;23;20525;-70
2023/08/31 11:16:43;;;;;;;5.90;5.60;;;;;;;22.57;51.65;100106.47;6093212;23;20033;-70
2023/08/31 11:19:09;;;;;;;6.97;6.35;;;;;;;22.15;52.47;100137.81;6117294;23;20103;-69
2023/08/31 11:21:37;;;;;;;6.55;6.05;;;;;;;21.57;53.17;100093.41;6121730;23;20025;-70
2023/08/31 11:24:04;;;;;;;6.20;5.80;;;;;;;21.16;54.33;100118.16;6065557;23;20093;-69
2023/08/31 11:26:32;;;;;;;7.85;6.05;;;;;;;21.63;53.91;100125.63;6115632;23;20097;-71
2023/08/31 11:28:58;;;;;;;6.40;5.90;;;;;;;21.89;53.55;100173.56;6097490;23;20040;-69